Friday, July 20, 2018, 12:37 PM EDT
Back to Local

KBKL, Cleveland Burke Lakefront

Location: Cleveland, OH, United States Lat: 41.533
Local Time: 12:37 PM EDT (16:37 GMT) Lon: -81.667
Time Zone: US/Eastern Elev: 583 ft

Show me the last for .
Show Decoded

2018-07-20 11:53 METAR KBKL 201553Z 14011KT 10SM FEW055 29/17 A2989 RMK AO2 SLP117 T02940172 =
2018-07-20 10:53 METAR KBKL 201453Z 16013KT 10SM SCT100 27/17 A2991 RMK AO2 SLP122 T02720167
                 58006 =
2018-07-20 09:53 METAR KBKL 201353Z 16011KT 10SM CLR 26/16 A2991 RMK AO2 SLP122 T02610161 =
2018-07-20 08:53 METAR KBKL 201253Z 15015G22KT 10SM SCT100 25/16 A2993 RMK AO2 SLP129 T02500156 =
2018-07-20 07:53 METAR KBKL 201153Z 15011G18KT 9SM SCT070 23/15 A2993 RMK AO2 SLP129 T02330150
                 10233 20222 56002 =
2018-07-20 06:53 METAR KBKL 201053Z 15012KT 10SM SCT065 22/15 A2993 RMK AO2 SLP130 T02220150 =
2018-07-20 05:53 METAR KBKL 200953Z 15009KT 10SM CLR 22/14 A2993 RMK AO2 SLP130 T02220144 =
2018-07-20 04:53 METAR KBKL 200853Z 15009KT 10SM FEW070 22/14 A2993 RMK AO2 SLP131 T02220139
                 58008 =
2018-07-20 03:53 METAR KBKL 200753Z 15008KT 10SM SCT065 23/13 A2995 RMK AO2 SLP136 T02280133 =
2018-07-20 02:53 METAR KBKL 200653Z 14007KT 10SM CLR 22/13 A2994 RMK AO2 SLP136 T02220133 =
2018-07-20 01:53 METAR KBKL 200553Z 15006KT 10SM CLR 22/13 A2996 RMK AO2 SLP140 T02220133 10272
                 20222 58010 =
2018-07-20 00:53 METAR KBKL 200453Z 16006KT 10SM CLR 23/13 A2997 RMK AO2 SLP146 T02330128
                 402720161 =
2018-07-19 23:53 METAR KBKL 200353Z 16004KT 10SM CLR 24/13 A2998 RMK AO2 SLP147 T02390128 =
2018-07-19 22:53 METAR KBKL 200253Z 14004KT 10SM CLR 25/14 A2999 RMK AO2 SLP149 T02500139 53005 =
2018-07-19 21:53 METAR KBKL 200153Z 09004KT 10SM CLR 26/14 A2998 RMK AO2 SLP148 T02610144 =
2018-07-19 20:53 METAR KBKL 200053Z 11006KT 10SM FU CLR 27/14 A2997 RMK AO2 SLP143 T02720139 =
2018-07-19 19:53 METAR KBKL 192353Z 02006KT 10SM CLR 27/18 A2997 RMK AO2 SLP144 T02670178 10272
                 20261 58014 =
2018-07-19 18:53 METAR KBKL 192253Z 02009KT 10SM CLR 27/18 A2999 RMK AO2 SLP151 T02670183 =
2018-07-19 17:53 METAR KBKL 192153Z 02010KT 10SM CLR 26/18 A3000 RMK AO2 SLP155 T02610178 =
2018-07-19 16:53 METAR KBKL 192053Z 03014KT 10SM CLR 27/17 A3001 RMK AO2 SLP159 T02670172 56015 =
2018-07-19 15:53 METAR KBKL 191953Z 02016KT 7SM CLR 26/17 A3002 RMK AO2 SLP162 T02610167 =
2018-07-19 14:53 METAR KBKL 191853Z 01012KT 10SM CLR 26/16 A3004 RMK AO2 SLP168 T02610156 =
2018-07-19 13:53 METAR KBKL 191753Z 36011KT 10SM CLR 26/16 A3006 RMK AO2 SLP174 T02610156 10267
                 20189 58014 =
2018-07-19 12:53 METAR KBKL 191653Z 34009KT 10SM CLR 26/13 A3008 RMK AO2 SLP181 T02610133 =

Support USWX by starting your Amazon purchase here.